Time;durP1;ratioP1;P1;durP2;ratioP2;P2;SDS_P1;SDS_P2;PMS_P1;PMS_P2;Temp;Humidity;BMP_temperature;BMP_pressure;BME280_temperature;BME280_humidity;BME280_pressure;Samples;Min_cycle;Max_cycle;Signal;HPM_P1;HPM_P2
2022/06/24 00:02:18;;;;;;;7.28;5.15;;;;;;;14.12;62.50;99080.69;5034425;28;20041;-64
2022/06/24 00:04:53;;;;;;;7.47;5.18;;;;;;;14.05;62.60;99079.09;4999820;28;20045;-64
2022/06/24 00:07:19;;;;;;;8.07;5.10;;;;;;;13.98;62.89;99075.94;5034369;28;20388;-64
2022/06/24 00:09:45;;;;;;;10.25;6.05;;;;;;;13.96;63.43;99085.25;5032568;28;20045;-65
2022/06/24 00:12:12;;;;;;;8.18;5.05;;;;;;;13.93;63.19;99085.78;5016076;28;20055;-65
2022/06/24 00:14:39;;;;;;;7.10;4.85;;;;;;;13.91;63.18;99085.25;5032811;28;20045;-65
2022/06/24 00:17:09;;;;;;;7.35;4.90;;;;;;;13.92;63.11;99097.53;5034039;28;20041;-64
2022/06/24 00:19:56;;;;;;;8.75;5.18;;;;;;;13.92;63.28;99089.53;5033913;28;20033;-65
2022/06/24 00:22:24;;;;;;;6.80;4.40;;;;;;;13.94;62.88;99092.69;5032461;28;20064;-64
2022/06/24 00:25:10;;;;;;;7.18;4.55;;;;;;;13.92;62.87;99092.97;5033803;28;20577;-64
2022/06/24 00:27:37;;;;;;;10.25;6.13;;;;;;;13.92;63.00;99094.84;5033764;28;20466;-64
2022/06/24 00:30:11;;;;;;;7.32;4.90;;;;;;;13.91;62.95;99099.34;5033779;28;20045;-65
2022/06/24 00:32:38;;;;;;;10.43;5.13;;;;;;;13.95;62.87;99095.13;5033828;28;20072;-63
2022/06/24 00:35:12;;;;;;;5.22;4.60;;;;;;;13.96;62.66;99090.59;5032459;28;20473;-65
2022/06/24 00:37:39;;;;;;;6.88;4.53;;;;;;;13.96;62.84;99095.91;5032273;28;20095;-64
2022/06/24 00:40:11;;;;;;;7.30;4.43;;;;;;;13.99;62.22;99098.84;5032079;28;20507;-65
2022/06/24 00:42:45;;;;;;;7.18;5.00;;;;;;;14.04;61.73;99103.38;5032136;28;20041;-63
2022/06/24 00:45:30;;;;;;;5.65;4.20;;;;;;;14.07;61.58;99108.97;5033400;28;20052;-64
2022/06/24 00:47:57;;;;;;;8.27;4.28;;;;;;;14.15;60.95;99101.50;5032190;28;20053;-64
2022/06/24 00:50:24;;;;;;;6.35;4.43;;;;;;;14.26;60.69;99103.09;5033060;28;20060;-65
2022/06/24 00:52:55;;;;;;;10.93;4.70;;;;;;;14.44;60.16;99101.72;5033457;28;20045;-64
2022/06/24 00:55:26;;;;;;;7.70;4.38;;;;;;;14.64;59.26;99108.94;5031722;28;20128;-65
2022/06/24 00:57:52;;;;;;;5.50;4.30;;;;;;;14.87;58.42;99111.00;5033421;28;20407;-64
2022/06/24 01:00:18;;;;;;;9.10;4.40;;;;;;;15.15;56.74;99112.22;5033128;28;20037;-65
2022/06/24 01:02:46;;;;;;;8.13;4.28;;;;;;;15.37;56.28;99111.84;5015284;28;20110;-63
2022/06/24 01:05:12;;;;;;;6.20;4.28;;;;;;;15.56;55.92;99109.34;5031506;28;20180;-65
2022/06/24 01:07:39;;;;;;;7.63;5.43;;;;;;;15.74;56.27;99115.94;5033116;28;20140;-65
2022/06/24 01:10:09;;;;;;;5.93;3.95;;;;;;;15.97;54.13;99105.59;5031585;28;20132;-64
2022/06/24 01:12:37;;;;;;;5.18;4.28;;;;;;;16.28;53.70;99100.81;5015046;28;20058;-65
2022/06/24 01:15:04;;;;;;;6.95;4.60;;;;;;;16.43;53.63;99108.69;5031375;28;20043;-65
2022/06/24 01:17:30;;;;;;;6.53;4.43;;;;;;;16.65;52.85;99110.88;5015085;28;20045;-64
2022/06/24 01:19:56;;;;;;;9.60;4.68;;;;;;;16.96;52.15;99111.34;5031569;28;20110;-65
2022/06/24 01:22:23;;;;;;;8.32;4.70;;;;;;;17.19;52.00;99100.91;5031341;28;20045;-64
2022/06/24 01:24:49;;;;;;;6.85;4.43;;;;;;;17.56;51.22;99113.53;5032337;28;20503;-65
2022/06/24 01:27:15;;;;;;;9.07;4.57;;;;;;;17.77;50.55;99113.25;5032305;28;20045;-64
2022/06/24 01:29:43;;;;;;;9.32;4.57;;;;;;;18.00;49.84;99107.00;5032547;28;20037;-65
2022/06/24 01:32:08;;;;;;;7.28;4.43;;;;;;;18.24;49.31;99111.44;5032503;28;20049;-65
2022/06/24 01:34:34;;;;;;;7.43;4.43;;;;;;;18.35;48.86;99116.34;5030982;28;20041;-64
2022/06/24 01:37:00;;;;;;;10.30;5.00;;;;;;;18.67;48.25;99125.41;5032574;28;20055;-65
2022/06/24 01:39:26;;;;;;;8.70;4.68;;;;;;;19.03;47.49;99125.56;5032383;28;20107;-64
2022/06/24 01:41:52;;;;;;;6.28;4.28;;;;;;;19.42;46.57;99124.22;5032229;28;20037;-64
2022/06/24 01:44:19;;;;;;;8.32;5.25;;;;;;;19.65;45.58;99124.31;5031972;28;20069;-65
2022/06/24 01:46:45;;;;;;;5.63;4.47;;;;;;;19.94;44.71;99126.56;5030857;28;20049;-65
2022/06/24 01:49:10;;;;;;;8.88;5.03;;;;;;;20.15;44.51;99124.19;5030639;28;20137;-64
2022/06/24 01:51:39;;;;;;;6.75;4.28;;;;;;;20.46;43.60;99131.50;5032218;28;20103;-65
2022/06/24 01:54:05;;;;;;;7.90;4.20;;;;;;;20.69;42.94;99134.97;5030944;28;20045;-64
2022/06/24 01:56:30;;;;;;;7.10;4.88;;;;;;;21.00;42.29;99133.03;5030598;28;20059;-65
2022/06/24 01:58:56;;;;;;;8.63;4.38;;;;;;;21.21;41.94;99129.75;5013923;28;20045;-64
2022/06/24 02:01:22;;;;;;;7.75;4.63;;;;;;;21.41;41.44;99122.97;5032017;28;21826;-64
2022/06/24 02:03:48;;;;;;;7.95;4.47;;;;;;;21.62;40.78;99140.16;5031657;28;20418;-64
2022/06/24 02:06:17;;;;;;;12.25;4.55;;;;;;;21.99;40.17;99127.91;5030477;28;20503;-65
2022/06/24 02:08:43;;;;;;;7.05;4.55;;;;;;;22.03;39.41;99124.56;5030399;28;20415;-64
2022/06/24 02:13:56;;;;;;;4.38;3.25;;;;;;;22.32;36.36;99126.59;5031669;28;20096;-65
2022/06/24 02:16:21;;;;;;;7.40;4.30;;;;;;;22.59;38.60;99128.09;5031807;28;20041;-65
2022/06/24 02:18:48;;;;;;;9.48;4.40;;;;;;;22.87;37.88;99126.56;5031789;28;20056;-64
2022/06/24 02:21:14;;;;;;;5.80;3.33;;;;;;;22.97;34.86;99124.63;5030289;28;20049;-64
2022/06/24 02:23:41;;;;;;;4.47;3.70;;;;;;;23.31;34.82;99131.75;5031542;28;20456;-65
2022/06/24 02:26:07;;;;;;;7.20;3.70;;;;;;;23.39;35.67;99135.53;5031604;28;20092;-64
2022/06/24 02:28:33;;;;;;;7.45;3.40;;;;;;;23.29;33.83;99136.69;5031633;28;20045;-64
2022/06/24 02:31:00;;;;;;;6.40;4.63;;;;;;;23.56;34.82;99132.72;5031404;28;20094;-64
2022/06/24 02:33:27;;;;;;;9.32;4.10;;;;;;;23.65;35.48;99136.16;5031731;28;20049;-64
2022/06/24 02:35:52;;;;;;;6.28;4.07;;;;;;;23.93;34.64;99138.31;5031567;28;20042;-65
2022/06/24 02:38:18;;;;;;;7.03;4.22;;;;;;;24.15;34.48;99132.56;5031230;28;20045;-65
2022/06/24 02:40:51;;;;;;;4.25;3.40;;;;;;;24.02;32.91;99139.03;5031256;28;20136;-65
2022/06/24 02:43:18;;;;;;;6.10;4.00;;;;;;;24.45;34.47;99143.28;5031679;28;20045;-65
2022/06/24 02:45:45;;;;;;;7.35;4.40;;;;;;;24.71;34.27;99140.25;5030098;28;20052;-64
2022/06/24 02:48:12;;;;;;;8.43;4.47;;;;;;;24.87;33.99;99148.50;5031608;28;20045;-64
2022/06/24 02:50:40;;;;;;;12.02;4.22;;;;;;;25.07;33.90;99153.03;5031164;28;20410;-65
2022/06/24 02:53:06;;;;;;;6.07;3.95;;;;;;;25.17;33.63;99156.44;5031557;28;20450;-64
2022/06/24 02:55:31;;;;;;;10.48;4.03;;;;;;;25.25;33.43;99152.81;5029861;28;20045;-67
2022/06/24 02:57:57;;;;;;;6.30;4.05;;;;;;;25.44;33.54;99160.34;5030020;28;20126;-65
2022/06/24 03:00:23;;;;;;;9.30;4.03;;;;;;;25.47;33.11;99162.38;5031004;28;20049;-65
2022/06/24 03:02:49;;;;;;;10.27;4.38;;;;;;;25.55;33.05;99167.69;5031037;28;20053;-64
2022/06/24 03:05:14;;;;;;;7.03;4.00;;;;;;;25.50;32.61;99150.84;5031231;28;20045;-65
2022/06/24 03:07:40;;;;;;;10.40;3.92;;;;;;;25.67;32.19;99155.22;5029757;28;20573;-65
2022/06/24 03:10:06;;;;;;;4.72;3.50;;;;;;;25.54;32.15;99159.91;5029972;28;20037;-66
2022/06/24 03:12:32;;;;;;;11.65;4.68;;;;;;;25.71;32.58;99154.22;5030992;28;20133;-65
2022/06/24 03:14:57;;;;;;;8.52;4.38;;;;;;;25.93;32.40;99165.69;5029753;28;20522;-64
2022/06/24 03:17:23;;;;;;;5.93;4.07;;;;;;;26.07;31.77;99155.25;5029453;28;20479;-65
2022/06/24 03:19:49;;;;;;;5.18;3.75;;;;;;;26.11;31.44;99158.81;5030794;28;20124;-66
2022/06/24 03:22:15;;;;;;;7.20;3.97;;;;;;;26.10;32.34;99159.19;5029790;28;20037;-65
2022/06/24 03:24:40;;;;;;;4.50;3.55;;;;;;;26.11;32.24;99160.75;5029498;28;20500;-63
2022/06/24 03:27:06;;;;;;;5.45;3.60;;;;;;;26.32;31.43;99163.25;5030993;28;20489;-65
2022/06/24 03:29:32;;;;;;;7.35;3.58;;;;;;;26.41;30.99;99169.31;5030680;28;20037;-64
2022/06/24 03:31:58;;;;;;;5.30;3.42;;;;;;;26.69;30.81;99167.38;5030859;28;20041;-64
2022/06/24 03:34:23;;;;;;;6.07;3.97;;;;;;;26.66;30.51;99167.28;5012914;28;20411;-64
2022/06/24 03:36:49;;;;;;;6.68;3.75;;;;;;;26.87;31.84;99167.03;5031272;28;20136;-65
2022/06/24 03:39:15;;;;;;;12.98;4.10;;;;;;;27.12;31.09;99168.41;5030731;28;20465;-65
2022/06/24 03:41:41;;;;;;;6.53;3.38;;;;;;;26.98;31.96;99167.28;5030964;28;20125;-65
2022/06/24 03:44:07;;;;;;;5.82;3.60;;;;;;;27.12;31.42;99173.03;5030878;28;20610;-65
2022/06/24 03:46:32;;;;;;;7.53;3.85;;;;;;;27.23;32.02;99163.22;5013021;28;20045;-64
2022/06/24 03:48:58;;;;;;;6.90;3.47;;;;;;;27.37;31.52;99163.56;5030843;28;20103;-65
2022/06/24 03:51:24;;;;;;;7.30;4.32;;;;;;;27.40;31.65;99172.94;5034036;28;20072;-65
2022/06/24 03:53:49;;;;;;;8.48;4.07;;;;;;;27.41;31.57;99163.63;5032776;28;20042;-65
2022/06/24 03:56:15;;;;;;;11.27;4.07;;;;;;;27.25;32.87;99166.38;5033978;28;20048;-65
2022/06/24 03:58:41;;;;;;;6.93;3.63;;;;;;;27.31;32.74;99173.13;5032868;28;20187;-65
2022/06/24 04:01:07;;;;;;;8.90;4.43;;;;;;;27.36;32.47;99181.03;5032584;28;20548;-65
2022/06/24 04:03:33;;;;;;;7.50;3.90;;;;;;;27.23;33.18;99176.84;5034150;28;20073;-65
2022/06/24 04:05:59;;;;;;;7.85;4.00;;;;;;;27.17;33.18;99170.88;5032478;28;20089;-64
2022/06/24 04:08:24;;;;;;;10.77;4.03;;;;;;;27.07;34.37;99178.78;5034206;28;20100;-65
2022/06/24 04:10:51;;;;;;;6.53;3.88;;;;;;;26.86;32.78;99168.19;5033821;28;20037;-66
2022/06/24 04:13:16;;;;;;;5.32;3.30;;;;;;;26.76;33.13;99177.63;5033738;28;20092;-65
2022/06/24 04:15:51;;;;;;;7.03;3.53;;;;;;;26.82;34.61;99167.28;5016081;28;20080;-65
2022/06/24 04:18:17;;;;;;;6.97;3.28;;;;;;;26.91;34.21;99174.13;5034161;28;20057;-65
2022/06/24 04:20:43;;;;;;;8.00;3.58;;;;;;;27.00;33.70;99173.16;5033821;28;20038;-65
2022/06/24 04:23:09;;;;;;;6.07;3.60;;;;;;;27.10;32.59;99176.13;5033505;28;20054;-65
2022/06/24 04:25:35;;;;;;;5.47;3.38;;;;;;;27.16;30.90;99172.03;5032214;28;20522;-66
2022/06/24 04:28:01;;;;;;;6.85;3.67;;;;;;;27.03;31.51;99175.16;5033877;28;20041;-64
2022/06/24 04:30:27;;;;;;;5.18;2.88;;;;;;;27.13;31.61;99180.06;5033461;28;20495;-65
2022/06/24 04:32:53;;;;;;;4.45;2.90;;;;;;;27.39;32.16;99185.78;5015432;28;20376;-63
2022/06/24 04:35:18;;;;;;;4.97;3.30;;;;;;;27.64;32.41;99177.34;5033134;28;20042;-66
2022/06/24 04:37:44;;;;;;;4.40;2.72;;;;;;;27.63;31.03;99181.22;5033606;28;20550;-65
2022/06/24 04:40:12;;;;;;;5.07;2.90;;;;;;;27.63;31.96;99178.50;5031953;28;20041;-65
2022/06/24 04:42:38;;;;;;;5.07;2.78;;;;;;;27.66;31.33;99191.41;5032158;28;20167;-64
2022/06/24 04:45:05;;;;;;;4.00;3.03;;;;;;;26.94;32.45;99187.03;5033120;28;20071;-65
2022/06/24 04:47:31;;;;;;;4.68;2.72;;;;;;;26.80;32.75;99173.09;5031914;28;20107;-64
2022/06/24 04:49:57;;;;;;;3.88;2.58;;;;;;;26.94;32.66;99186.22;5033264;28;20077;-65
2022/06/24 04:52:22;;;;;;;4.05;2.88;;;;;;;26.75;33.76;99180.72;5031926;28;20041;-65
2022/06/24 04:54:50;;;;;;;5.97;2.97;;;;;;;26.80;33.63;99186.69;5031998;28;20037;-65
2022/06/24 04:57:16;;;;;;;9.88;3.15;;;;;;;26.99;32.15;99179.75;5032796;28;20057;-64
2022/06/24 04:59:42;;;;;;;4.65;2.30;;;;;;;27.24;31.28;99180.34;5048401;28;20049;-64
2022/06/24 05:02:08;;;;;;;6.18;2.58;;;;;;;26.90;32.47;99175.25;5031030;28;20099;-64
2022/06/24 05:04:37;;;;;;;3.85;2.20;;;;;;;27.06;30.93;99178.00;5032542;28;20511;-65
2022/06/24 05:07:05;;;;;;;3.95;2.30;;;;;;;27.26;31.18;99178.06;5015034;28;20092;-65
2022/06/24 05:09:31;;;;;;;4.65;2.53;;;;;;;27.01;32.83;99178.25;5032820;28;20033;-64
2022/06/24 05:11:57;;;;;;;4.30;2.10;;;;;;;27.09;32.76;99182.72;5032733;28;20095;-65
2022/06/24 05:14:22;;;;;;;2.78;2.20;;;;;;;26.82;32.66;99186.31;5031528;28;20081;-65
2022/06/24 05:16:48;;;;;;;3.45;2.40;;;;;;;26.48;32.86;99183.91;5014795;28;20037;-65
2022/06/24 05:19:14;;;;;;;6.75;2.55;;;;;;;26.39;33.05;99185.19;5032464;28;20503;-64
2022/06/24 05:21:40;;;;;;;5.05;2.33;;;;;;;26.37;33.64;99184.75;5032366;28;20045;-63
2022/06/24 05:24:06;;;;;;;2.60;2.05;;;;;;;26.02;32.84;99182.63;5032201;28;20049;-64
2022/06/24 05:26:32;;;;;;;2.22;2.03;;;;;;;25.69;33.48;99185.53;5030910;28;20033;-65
2022/06/24 05:28:58;;;;;;;4.00;2.20;;;;;;;25.52;33.80;99192.00;5032462;28;20083;-65
2022/06/24 05:31:24;;;;;;;3.03;2.20;;;;;;;25.17;33.89;99180.84;5014450;28;20068;-66
2022/06/24 05:33:49;;;;;;;3.08;2.15;;;;;;;25.27;34.12;99191.25;5032107;28;20415;-63
2022/06/24 05:36:15;;;;;;;3.25;2.08;;;;;;;25.25;34.66;99188.88;5032270;28;20087;-65
2022/06/24 05:38:42;;;;;;;3.83;2.83;;;;;;;25.15;35.02;99181.22;5047282;28;20431;-65
2022/06/24 05:41:08;;;;;;;3.70;1.92;;;;;;;25.18;34.46;99194.09;5032099;28;20068;-64
2022/06/24 05:43:34;;;;;;;3.72;2.00;;;;;;;24.88;34.38;99191.56;5031823;28;20121;-64
2022/06/24 05:46:00;;;;;;;2.17;1.98;;;;;;;24.74;33.45;99184.84;5030673;28;20048;-66
2022/06/24 05:48:27;;;;;;;2.95;1.90;;;;;;;24.51;34.21;99185.28;5032266;28;20045;-64
2022/06/24 05:50:53;;;;;;;3.25;2.25;;;;;;;24.57;33.91;99177.72;5031941;28;20064;-65
2022/06/24 05:56:04;;;;;;;1.98;1.70;;;;;;;24.33;33.97;99184.63;5030586;28;20495;-65
2022/06/24 05:58:30;;;;;;;4.20;2.00;;;;;;;24.23;34.20;99182.31;5013846;28;20041;-65
2022/06/24 06:00:56;;;;;;;2.60;1.90;;;;;;;24.13;34.33;99172.72;5031934;28;20219;-66
2022/06/24 06:03:23;;;;;;;3.85;2.00;;;;;;;24.32;34.29;99187.66;5030456;28;20076;-63
2022/06/24 06:05:49;;;;;;;3.00;2.20;;;;;;;24.34;34.29;99183.50;5031365;28;20510;-64
2022/06/24 06:08:15;;;;;;;3.60;2.10;;;;;;;24.28;34.73;99181.34;5031974;28;20280;-64
2022/06/24 06:10:43;;;;;;;2.72;2.03;;;;;;;24.23;33.64;99183.13;5031771;28;20038;-65
2022/06/24 06:13:10;;;;;;;2.90;1.70;;;;;;;24.16;32.14;99180.16;5030713;28;20064;-65
2022/06/24 06:15:36;;;;;;;2.53;1.60;;;;;;;24.22;32.25;99168.00;5031311;28;20037;-64
2022/06/24 06:18:02;;;;;;;2.28;1.75;;;;;;;24.18;33.09;99171.72;5031648;28;20060;-64
2022/06/24 06:20:28;;;;;;;2.20;1.70;;;;;;;24.28;33.00;99176.72;5030367;28;20041;-65
2022/06/24 06:22:53;;;;;;;2.85;2.00;;;;;;;24.31;32.72;99175.25;5013975;28;20050;-64
2022/06/24 06:25:19;;;;;;;3.92;1.83;;;;;;;24.21;33.82;99171.84;5029730;28;20140;-65
2022/06/24 06:27:45;;;;;;;5.85;1.83;;;;;;;24.18;33.26;99171.72;5029782;28;20049;-66
2022/06/24 06:30:11;;;;;;;3.33;2.25;;;;;;;24.13;33.16;99167.28;5013581;28;20037;-64
2022/06/24 06:32:37;;;;;;;2.30;1.88;;;;;;;24.13;34.49;99163.78;5030113;28;20092;-65
2022/06/24 06:35:06;;;;;;;4.07;2.00;;;;;;;24.09;34.28;99176.41;5031124;28;20487;-65
2022/06/24 06:37:32;;;;;;;2.22;1.90;;;;;;;24.15;34.42;99172.34;5031417;28;20041;-65
2022/06/24 06:39:58;;;;;;;2.30;2.10;;;;;;;24.12;35.01;99176.53;5031056;28;20037;-65
2022/06/24 06:42:24;;;;;;;6.03;2.40;;;;;;;24.04;34.81;99172.00;5029765;28;20455;-64
2022/06/24 06:44:50;;;;;;;2.45;2.20;;;;;;;23.95;34.65;99174.78;5030944;28;20115;-65
2022/06/24 06:47:15;;;;;;;2.65;2.40;;;;;;;23.89;35.10;99178.81;4996995;28;20072;-64
2022/06/24 06:49:41;;;;;;;3.63;2.53;;;;;;;23.82;34.87;99173.13;5029731;28;20038;-65
2022/06/24 06:52:07;;;;;;;2.88;2.45;;;;;;;23.86;34.76;99165.16;5030066;28;20049;-64
2022/06/24 06:54:33;;;;;;;2.45;2.25;;;;;;;24.01;34.25;99165.31;5031223;28;20038;-65
2022/06/24 06:56:59;;;;;;;10.13;2.60;;;;;;;24.05;34.80;99172.78;5030973;28;20463;-65
2022/06/24 06:59:25;;;;;;;2.05;1.95;;;;;;;24.06;34.89;99180.59;5030886;28;20132;-64
2022/06/24 07:01:51;;;;;;;2.97;2.30;;;;;;;23.99;34.63;99172.97;5029859;28;20080;-65
2022/06/24 07:04:16;;;;;;;3.05;2.60;;;;;;;24.04;35.80;99169.28;5029649;28;20068;-66
2022/06/24 07:06:42;;;;;;;5.95;2.15;;;;;;;24.05;34.00;99165.44;5029651;28;20056;-65
2022/06/24 07:09:08;;;;;;;3.55;2.15;;;;;;;23.86;34.60;99160.53;5029894;28;20041;-65
2022/06/24 07:11:34;;;;;;;2.20;2.00;;;;;;;23.64;34.77;99158.13;5031081;28;20048;-65
2022/06/24 07:14:00;;;;;;;4.32;2.20;;;;;;;23.74;34.48;99165.88;5030875;28;20058;-64
2022/06/24 07:16:26;;;;;;;2.28;2.08;;;;;;;23.74;33.49;99168.59;5030876;28;20038;-65
2022/06/24 07:18:52;;;;;;;5.13;2.30;;;;;;;23.73;34.67;99175.09;5013175;28;20044;-64
2022/06/24 07:21:17;;;;;;;2.90;2.50;;;;;;;23.71;34.63;99166.53;5030635;28;20045;-63
2022/06/24 07:23:43;;;;;;;3.55;2.60;;;;;;;23.67;34.98;99169.06;5031623;28;20040;-65
2022/06/24 07:26:09;;;;;;;6.70;2.42;;;;;;;23.78;34.98;99172.22;5034172;28;20049;-65
2022/06/24 07:28:35;;;;;;;2.67;2.47;;;;;;;23.80;34.64;99170.75;5034449;28;20041;-65
2022/06/24 07:31:01;;;;;;;3.13;2.55;;;;;;;23.85;34.64;99163.56;5033311;28;20414;-64
2022/06/24 07:33:27;;;;;;;4.35;2.65;;;;;;;23.85;35.13;99160.84;5033375;28;20056;-65
2022/06/24 07:35:52;;;;;;;4.68;2.78;;;;;;;23.72;35.05;99163.50;5034521;28;20533;-66
2022/06/24 07:38:18;;;;;;;5.13;2.90;;;;;;;23.74;36.06;99174.00;5033261;28;20052;-65
2022/06/24 07:40:44;;;;;;;4.32;2.60;;;;;;;23.76;36.05;99164.41;5033081;28;20140;-65
2022/06/24 07:43:10;;;;;;;2.83;2.50;;;;;;;23.86;35.66;99167.84;5034634;28;20065;-65
2022/06/24 07:45:35;;;;;;;4.15;2.78;;;;;;;23.82;35.21;99156.88;5034364;28;20083;-66
2022/06/24 07:48:01;;;;;;;3.90;2.70;;;;;;;23.85;35.68;99164.34;5033173;28;20045;-65
2022/06/24 07:50:27;;;;;;;3.72;2.63;;;;;;;23.97;36.08;99156.28;5034053;28;20530;-66
2022/06/24 07:52:53;;;;;;;2.67;2.47;;;;;;;24.08;35.60;99162.06;5032918;28;20045;-64
2022/06/24 07:58:03;;;;;;;4.03;2.53;;;;;;;24.20;36.47;99161.31;5032643;28;20479;-65
2022/06/24 08:00:28;;;;;;;3.85;2.65;;;;;;;24.22;35.68;99168.00;5032683;28;20052;-65
2022/06/24 08:02:54;;;;;;;3.13;2.60;;;;;;;24.16;35.34;99163.13;5034365;28;20454;-65
2022/06/24 08:05:21;;;;;;;4.00;2.60;;;;;;;24.18;35.05;99152.75;5033783;28;20045;-66
2022/06/24 08:07:47;;;;;;;4.75;2.63;;;;;;;24.33;34.48;99143.22;5032862;28;20045;-67
2022/06/24 08:10:12;;;;;;;5.30;2.40;;;;;;;24.36;34.74;99162.28;5033995;28;20049;-65
2022/06/24 08:12:39;;;;;;;3.00;2.60;;;;;;;24.14;34.85;99151.84;5033826;28;20069;-65
2022/06/24 08:15:05;;;;;;;3.00;2.70;;;;;;;24.29;34.75;99150.41;5033566;28;20045;-65
2022/06/24 08:17:30;;;;;;;3.53;2.70;;;;;;;24.40;34.18;99140.72;5032293;28;20045;-65
2022/06/24 08:19:57;;;;;;;3.88;2.70;;;;;;;24.60;35.03;99147.25;5032331;28;20049;-64
2022/06/24 08:22:22;;;;;;;3.70;2.70;;;;;;;24.64;34.10;99150.84;5032482;28;20050;-64
2022/06/24 08:24:48;;;;;;;4.47;2.78;;;;;;;24.30;34.16;99152.00;5033597;28;20050;-65
2022/06/24 08:27:14;;;;;;;2.50;2.30;;;;;;;24.07;35.43;99159.72;5033207;28;20128;-65
2022/06/24 08:29:40;;;;;;;3.38;2.45;;;;;;;24.19;35.11;99152.41;5015354;28;20073;-65
2022/06/24 08:32:06;;;;;;;5.30;2.83;;;;;;;24.26;34.59;99149.16;5033237;28;20073;-65
2022/06/24 08:34:31;;;;;;;3.75;2.50;;;;;;;24.44;34.56;99150.59;5031786;28;20060;-64
2022/06/24 08:36:57;;;;;;;5.25;3.22;;;;;;;24.52;34.54;99154.34;5014599;28;20073;-65
2022/06/24 08:39:23;;;;;;;3.50;2.80;;;;;;;24.63;33.89;99146.56;5032987;28;20057;-64
2022/06/24 08:41:51;;;;;;;4.38;2.72;;;;;;;24.79;33.46;99139.34;5033289;28;20528;-65
2022/06/24 08:44:17;;;;;;;5.68;2.53;;;;;;;24.95;34.45;99139.47;5031703;28;20411;-65
2022/06/24 08:46:43;;;;;;;2.83;2.58;;;;;;;24.96;34.01;99138.34;5031682;28;20048;-65
2022/06/24 08:49:08;;;;;;;4.25;2.75;;;;;;;25.15;34.48;99141.31;5031683;28;20037;-65
2022/06/24 08:51:34;;;;;;;3.40;2.78;;;;;;;25.08;33.08;99148.41;5031729;28;20165;-65
2022/06/24 08:54:01;;;;;;;2.47;2.28;;;;;;;24.89;33.39;99130.00;5031975;28;20041;-66
2022/06/24 08:56:28;;;;;;;4.15;2.30;;;;;;;24.83;33.03;99151.13;5031364;28;20046;-66
2022/06/24 08:58:54;;;;;;;2.75;2.55;;;;;;;24.72;32.92;99149.97;5031781;28;20048;-65
2022/06/24 09:01:20;;;;;;;4.28;2.60;;;;;;;24.63;33.30;99124.88;5015358;28;20045;-64
2022/06/24 09:03:47;;;;;;;3.25;2.55;;;;;;;24.63;33.43;99125.69;5033020;28;20037;-65
2022/06/24 09:06:14;;;;;;;3.00;2.70;;;;;;;24.66;33.05;99132.34;5032755;28;20095;-65
2022/06/24 09:08:40;;;;;;;4.05;2.63;;;;;;;24.63;33.11;99119.47;5032512;28;20049;-64
2022/06/24 09:11:07;;;;;;;7.53;3.13;;;;;;;24.53;34.90;99134.25;5031031;28;20519;-65
2022/06/24 09:13:52;;;;;;;3.65;2.90;;;;;;;24.55;33.46;99120.34;5014503;28;20045;-66
2022/06/24 09:16:19;;;;;;;3.00;2.63;;;;;;;24.54;33.67;99125.00;5032342;28;20052;-65
2022/06/24 09:18:52;;;;;;;3.83;2.60;;;;;;;24.60;33.87;99125.56;5032567;28;20057;-64
2022/06/24 09:21:25;;;;;;;3.88;2.70;;;;;;;24.63;34.82;99133.03;5032313;28;20034;-66
2022/06/24 09:24:05;;;;;;;3.75;2.35;;;;;;;24.65;33.44;99131.56;5032306;28;20514;-65
2022/06/24 09:26:34;;;;;;;3.25;2.90;;;;;;;24.64;33.94;99126.47;5030940;28;20049;-64
2022/06/24 09:29:03;;;;;;;2.80;2.60;;;;;;;24.50;33.91;99129.47;5030890;28;20087;-64
2022/06/24 09:31:31;;;;;;;4.15;2.90;;;;;;;24.51;33.85;99114.03;5031153;28;20045;-66
2022/06/24 09:34:15;;;;;;;3.67;2.53;;;;;;;24.57;34.13;99120.81;5032383;28;20037;-66
2022/06/24 09:36:43;;;;;;;3.00;2.40;;;;;;;24.56;33.20;99113.81;5031988;28;20186;-64
2022/06/24 09:39:13;;;;;;;3.80;2.55;;;;;;;24.52;33.55;99116.41;5030750;28;20041;-66
2022/06/24 09:42:05;;;;;;;3.92;2.25;;;;;;;24.43;32.95;99105.66;5031904;28;20045;-65
2022/06/24 09:44:44;;;;;;;6.03;2.65;;;;;;;24.32;33.87;99111.81;5031354;28;20077;-66
2022/06/24 09:47:10;;;;;;;4.55;2.53;;;;;;;24.33;33.38;99106.09;5014322;28;20047;-65
2022/06/24 09:49:35;;;;;;;5.22;2.58;;;;;;;24.29;31.26;99110.56;5031671;28;20034;-65
2022/06/24 09:52:02;;;;;;;4.22;2.58;;;;;;;24.37;33.06;99109.69;5030367;28;20049;-65
2022/06/24 09:54:28;;;;;;;3.47;2.72;;;;;;;24.39;33.56;99107.44;5030156;28;20045;-65
2022/06/24 09:56:54;;;;;;;8.88;2.80;;;;;;;24.46;34.33;99110.41;5030672;28;20042;-65
2022/06/24 10:02:05;;;;;;;4.68;2.92;;;;;;;24.54;33.08;99106.03;5031855;28;20049;-68
2022/06/24 10:04:31;;;;;;;3.03;2.53;;;;;;;24.38;33.77;99092.28;5030568;28;20466;-67
2022/06/24 10:06:57;;;;;;;4.32;2.78;;;;;;;24.41;34.62;99102.50;5030585;28;20496;-65
2022/06/24 10:09:26;;;;;;;6.95;2.75;;;;;;;24.50;32.69;99098.91;5031593;28;20041;-66
2022/06/24 10:11:56;;;;;;;4.20;2.70;;;;;;;24.50;32.19;99110.53;5031475;28;20041;-65
2022/06/24 10:14:22;;;;;;;2.97;2.50;;;;;;;24.49;33.44;99095.41;5013446;28;20037;-66
2022/06/24 10:16:49;;;;;;;4.10;2.85;;;;;;;24.63;32.92;99098.56;5013728;28;20081;-66
2022/06/24 10:19:17;;;;;;;5.68;2.85;;;;;;;24.61;32.99;99087.28;5030264;28;20050;-66
2022/06/24 10:21:43;;;;;;;5.35;2.60;;;;;;;24.53;33.31;99098.22;5030481;28;20189;-65
2022/06/24 10:24:14;;;;;;;6.13;2.53;;;;;;;24.54;33.31;99103.31;5030101;28;20045;-66
2022/06/24 10:26:42;;;;;;;4.70;2.75;;;;;;;24.54;33.20;99097.91;5031375;28;20049;-65
2022/06/24 10:29:07;;;;;;;3.45;2.70;;;;;;;24.56;33.36;99084.81;5030133;28;20060;-65
2022/06/24 10:31:48;;;;;;;4.95;2.67;;;;;;;24.66;33.41;99095.19;5012915;28;20138;-65
2022/06/24 10:34:22;;;;;;;2.95;2.50;;;;;;;24.67;33.39;99090.56;5031013;28;20046;-65
2022/06/24 10:37:05;;;;;;;3.67;2.33;;;;;;;24.74;33.16;99082.66;5031284;28;20133;-65
2022/06/24 10:39:33;;;;;;;4.32;2.85;;;;;;;24.64;33.44;99089.31;5031242;28;20045;-65
2022/06/24 10:42:07;;;;;;;4.15;2.67;;;;;;;24.60;34.39;99095.75;5031001;28;20554;-65
2022/06/24 10:44:35;;;;;;;3.42;2.47;;;;;;;24.58;33.26;99090.66;5013300;28;20037;-65
2022/06/24 10:47:16;;;;;;;3.30;3.00;;;;;;;24.65;33.01;99088.19;5031523;28;20033;-65
2022/06/24 10:49:51;;;;;;;3.92;2.65;;;;;;;24.74;33.83;99092.69;5030197;28;20042;-66
2022/06/24 10:52:36;;;;;;;3.15;2.55;;;;;;;24.80;34.45;99105.72;5031478;28;20045;-65
2022/06/24 10:55:17;;;;;;;2.88;2.60;;;;;;;24.76;33.52;99099.38;5030108;28;20049;-65
2022/06/24 10:57:45;;;;;;;3.15;2.40;;;;;;;24.75;33.46;99097.00;5031509;28;20513;-66
2022/06/24 11:00:13;;;;;;;4.78;2.80;;;;;;;24.65;33.70;99082.78;5033700;28;20466;-64
2022/06/24 11:02:39;;;;;;;6.80;2.67;;;;;;;24.69;34.80;99078.25;5034000;28;20091;-66
2022/06/24 11:05:10;;;;;;;3.30;2.90;;;;;;;24.83;34.00;99085.28;5033803;28;20053;-65
2022/06/24 11:07:44;;;;;;;3.95;2.75;;;;;;;24.91;33.88;99082.44;5035387;28;20061;-65
2022/06/24 11:10:23;;;;;;;3.03;2.72;;;;;;;24.90;33.86;99093.59;5035261;28;20057;-65
2022/06/24 11:12:52;;;;;;;6.40;3.00;;;;;;;24.81;34.06;99090.22;5033764;28;20049;-65
2022/06/24 11:15:19;;;;;;;3.97;2.78;;;;;;;24.74;33.30;99085.38;5033530;28;20042;-66
2022/06/24 11:17:46;;;;;;;3.50;2.55;;;;;;;24.77;33.33;99100.19;5033749;28;20064;-65
2022/06/24 11:20:13;;;;;;;4.85;2.80;;;;;;;24.78;34.00;99099.03;5034769;28;20539;-64
2022/06/24 11:22:46;;;;;;;4.75;2.90;;;;;;;24.76;33.54;99102.06;5033599;28;20033;-64
2022/06/24 11:25:14;;;;;;;3.90;2.50;;;;;;;24.72;34.03;99089.56;5034406;28;20049;-65
2022/06/24 11:27:40;;;;;;;4.65;2.83;;;;;;;24.75;32.74;99081.53;5034570;28;20117;-64
2022/06/24 11:30:08;;;;;;;7.30;2.83;;;;;;;24.79;33.00;99074.28;5033367;28;20045;-65
2022/06/24 11:32:57;;;;;;;3.25;2.53;;;;;;;24.87;32.82;99073.38;5033287;28;20037;-65
2022/06/24 11:35:23;;;;;;;;;;;;;;;24.89;32.59;99068.44;5047198;28;20531;-64
2022/06/24 11:37:49;;;;;;;3.33;2.72;;;;;;;24.89;33.41;99073.06;5033466;28;20114;-66
2022/06/24 11:40:22;;;;;;;3.53;2.40;;;;;;;24.97;34.22;99068.63;5034620;28;20099;-65
2022/06/24 11:42:48;;;;;;;7.00;2.67;;;;;;;24.90;34.16;99075.41;5033097;28;20132;-64
2022/06/24 11:45:13;;;;;;;3.50;2.50;;;;;;;24.92;33.71;99089.44;5034588;28;20423;-65
2022/06/24 11:47:39;;;;;;;4.82;2.70;;;;;;;24.92;32.96;99075.09;5033100;28;20519;-65